EYKS weather

S. Darius and S. Gir─Śnas Airport
Kaunas, Kaunas County, Lithuania

Public forecast

Using degrees Celsius for public forecast. Weather courtesy of forecast.io.

METAR (pilot weather report)

Closest report is Kaunas International Airport, 8.6 nm (16.0 km) NE. Retrieved 2018/05/21 21:20 UTC (29 minutes ago):

EYKA 212120Z 07005KT CAVOK 11/05 Q1023

TAF (pilot weather forecast)

Closest forecast is Kaunas International Airport, 8.6 nm (16.0 km) NE. Retrieved 2018/05/21 18:12 UTC (4 hours ago):

TAF TAF EYKA 211700Z 2118/2218 VRB05KT CAVOK BECMG 2201/2203 9000 BKN045 TEMPO 2213/2218 BKN035CB